createdAt,value
2023-05-25T00:01:02.029Z,6.30
2023-05-25T00:01:54.268Z,8.50
2023-05-25T00:02:52.421Z,7.10
2023-05-25T00:03:52.383Z,6.70
2023-05-25T00:04:52.246Z,8.50
2023-05-25T00:05:52.241Z,7.30
2023-05-25T00:06:52.215Z,6.60
2023-05-25T00:07:52.195Z,7.50
2023-05-25T00:08:52.669Z,6.20
2023-05-25T00:10:25.807Z,8.80
2023-05-25T00:10:52.194Z,8.90
2023-05-25T00:11:52.185Z,9.30
2023-05-25T00:12:52.188Z,8.50
2023-05-25T00:13:52.166Z,7.80
2023-05-25T00:14:52.203Z,7.70
2023-05-25T00:15:52.166Z,7.80
2023-05-25T00:16:52.194Z,8.00
2023-05-25T00:17:52.219Z,8.60
2023-05-25T00:18:52.120Z,8.30
2023-05-25T00:19:52.192Z,8.10
2023-05-25T00:20:52.130Z,10.10
2023-05-25T00:21:52.104Z,7.70
2023-05-25T00:22:52.100Z,7.90
2023-05-25T00:23:52.138Z,8.20
2023-05-25T00:24:52.112Z,7.00
2023-05-25T00:25:52.064Z,8.70
2023-05-25T00:26:52.081Z,9.10
2023-05-25T00:27:52.050Z,8.90
2023-05-25T00:28:52.070Z,8.20
2023-05-25T00:29:52.068Z,8.70
2023-05-25T00:30:52.052Z,9.70
2023-05-25T00:31:52.018Z,8.70
2023-05-25T00:32:52.051Z,8.00
2023-05-25T00:33:52.026Z,7.30
2023-05-25T00:34:51.995Z,9.50
2023-05-25T00:35:51.996Z,9.00
2023-05-25T00:36:51.982Z,9.30
2023-05-25T00:37:51.970Z,8.00
2023-05-25T00:38:52.008Z,7.70
2023-05-25T00:39:51.967Z,9.30
2023-05-25T00:40:51.952Z,7.80
2023-05-25T00:41:51.944Z,10.30
2023-05-25T00:42:51.984Z,7.60
2023-05-25T00:43:51.960Z,7.80
2023-05-25T00:44:51.959Z,7.20
2023-05-25T00:45:51.938Z,8.00
2023-05-25T00:46:52.091Z,8.10
2023-05-25T00:47:52.015Z,8.90
2023-05-25T00:48:51.923Z,6.80
2023-05-25T00:49:51.893Z,8.20
2023-05-25T00:50:51.894Z,7.40
2023-05-25T00:51:51.880Z,8.80
2023-05-25T00:52:51.898Z,8.90
2023-05-25T00:53:51.890Z,8.10
2023-05-25T00:54:51.870Z,8.60
2023-05-25T00:55:51.914Z,8.00
2023-05-25T00:56:51.898Z,11.10
2023-05-25T00:57:51.929Z,13.60
2023-05-25T00:58:51.852Z,14.90
2023-05-25T00:59:51.811Z,15.90
2023-05-25T01:00:51.832Z,16.30
2023-05-25T01:01:51.868Z,13.90
2023-05-25T01:02:51.863Z,13.30
2023-05-25T01:03:51.847Z,11.70
2023-05-25T01:04:51.775Z,13.00
2023-05-25T01:05:51.784Z,10.10
2023-05-25T01:06:51.827Z,8.90
2023-05-25T01:07:51.759Z,9.90
2023-05-25T01:08:51.759Z,12.50
2023-05-25T01:09:51.745Z,9.60
2023-05-25T01:10:51.721Z,9.90
2023-05-25T01:11:51.742Z,9.70
2023-05-25T01:12:51.718Z,9.80
2023-05-25T01:13:51.703Z,7.90
2023-05-25T01:14:51.703Z,7.80
2023-05-25T01:15:51.722Z,7.50
2023-05-25T01:16:51.916Z,8.30
2023-05-25T01:17:51.697Z,9.00
2023-05-25T01:18:51.675Z,9.70
2023-05-25T01:20:08.278Z,8.60
2023-05-25T01:20:53.707Z,8.70
2023-05-25T01:21:51.680Z,7.50
2023-05-25T01:22:51.652Z,9.10
2023-05-25T01:23:51.648Z,8.10
2023-05-25T01:24:51.629Z,8.90
2023-05-25T01:25:51.670Z,9.40
2023-05-25T01:26:51.613Z,8.60
2023-05-25T01:27:51.593Z,8.50
2023-05-25T01:28:51.587Z,10.10
2023-05-25T01:29:51.601Z,10.80
2023-05-25T01:30:51.613Z,8.20
2023-05-25T01:31:51.634Z,7.00
2023-05-25T01:32:51.606Z,7.70
2023-05-25T01:33:51.622Z,7.80
2023-05-25T01:34:51.588Z,8.00
2023-05-25T01:35:51.578Z,8.60
2023-05-25T01:36:51.537Z,8.00
2023-05-25T01:37:51.523Z,8.80
2023-05-25T01:38:51.534Z,10.10
2023-05-25T01:39:51.570Z,8.20
2023-05-25T01:40:51.507Z,8.70
2023-05-25T01:41:51.495Z,10.00
2023-05-25T01:42:51.500Z,8.90
2023-05-25T01:43:51.494Z,7.60
2023-05-25T01:44:51.499Z,11.70
2023-05-25T01:45:51.502Z,7.40
2023-05-25T01:46:51.479Z,10.90
2023-05-25T01:47:51.518Z,10.40
2023-05-25T01:48:51.452Z,9.50
2023-05-25T01:49:51.473Z,8.20
2023-05-25T01:50:51.425Z,8.60
2023-05-25T01:51:51.449Z,7.20
2023-05-25T01:52:51.407Z,9.80
2023-05-25T01:53:51.457Z,9.30
2023-05-25T01:54:51.423Z,9.50
2023-05-25T01:55:51.386Z,8.10
2023-05-25T01:56:51.388Z,10.40
2023-05-25T01:57:51.387Z,8.50
2023-05-25T01:58:51.414Z,8.50
2023-05-25T01:59:51.407Z,8.10
2023-05-25T02:00:51.348Z,9.50
2023-05-25T02:01:53.165Z,8.80
2023-05-25T02:02:52.380Z,8.30
2023-05-25T02:03:51.398Z,9.40
2023-05-25T02:04:51.320Z,7.30
2023-05-25T02:05:51.312Z,9.70
2023-05-25T02:06:51.299Z,8.60
2023-05-25T02:07:51.324Z,9.60
2023-05-25T02:08:51.314Z,7.50
2023-05-25T02:09:51.336Z,8.50
2023-05-25T02:10:51.267Z,7.90
2023-05-25T02:11:51.269Z,8.10
2023-05-25T02:12:51.284Z,9.10
2023-05-25T02:13:51.281Z,8.70
2023-05-25T02:14:51.253Z,6.90
2023-05-25T02:15:51.265Z,8.70
2023-05-25T02:16:51.235Z,9.10
2023-05-25T02:17:51.308Z,10.10
2023-05-25T02:18:51.224Z,12.10
2023-05-25T02:19:51.235Z,8.30
2023-05-25T02:20:51.245Z,8.30
2023-05-25T02:21:51.196Z,8.00
2023-05-25T02:22:51.227Z,8.70
2023-05-25T02:23:51.182Z,9.10
2023-05-25T02:24:51.165Z,8.60
2023-05-25T02:25:51.166Z,7.80
2023-05-25T02:26:51.180Z,9.80
2023-05-25T02:27:51.187Z,9.00
2023-05-25T02:28:51.138Z,10.10
2023-05-25T02:29:51.129Z,9.00
2023-05-25T02:30:51.125Z,9.90
2023-05-25T02:31:51.185Z,10.20
2023-05-25T02:32:51.118Z,10.10
2023-05-25T02:33:51.101Z,9.60
2023-05-25T02:34:51.094Z,11.90
2023-05-25T02:35:51.115Z,11.00
2023-05-25T02:36:51.136Z,9.80
2023-05-25T02:37:51.405Z,9.20
2023-05-25T02:38:52.066Z,10.70
2023-05-25T02:39:51.069Z,9.70
2023-05-25T02:40:51.081Z,10.10
2023-05-25T02:41:51.060Z,11.10
2023-05-25T02:42:51.040Z,12.20
2023-05-25T02:43:51.063Z,19.40
2023-05-25T02:44:51.071Z,23.90
2023-05-25T02:45:51.025Z,18.90
2023-05-25T02:46:51.154Z,21.20
2023-05-25T02:47:51.047Z,19.80
2023-05-25T02:48:51.097Z,15.10
2023-05-25T02:49:51.034Z,10.40
2023-05-25T02:50:50.999Z,9.70
2023-05-25T02:51:50.960Z,9.90
2023-05-25T02:52:50.954Z,10.40
2023-05-25T02:53:51.014Z,8.90
2023-05-25T02:54:50.944Z,8.50
2023-05-25T02:55:50.942Z,10.60
2023-05-25T02:56:50.936Z,8.80
2023-05-25T02:57:50.925Z,7.30
2023-05-25T02:58:50.936Z,8.30
2023-05-25T02:59:50.916Z,8.60
2023-05-25T03:00:51.015Z,8.10
2023-05-25T03:01:50.920Z,8.60
2023-05-25T03:02:50.919Z,7.70
2023-05-25T03:03:50.932Z,7.60
2023-05-25T03:04:50.871Z,7.70
2023-05-25T03:05:50.862Z,10.00
2023-05-25T03:06:50.853Z,9.40
2023-05-25T03:07:50.884Z,9.70
2023-05-25T03:08:50.870Z,10.20
2023-05-25T03:09:50.847Z,10.30
2023-05-25T03:10:50.832Z,8.20
2023-05-25T03:11:50.816Z,8.50
2023-05-25T03:12:50.841Z,11.40
2023-05-25T03:13:50.806Z,8.00
2023-05-25T03:14:50.800Z,9.70
2023-05-25T03:15:50.801Z,8.80
2023-05-25T03:16:53.623Z,10.90
2023-05-25T03:17:51.904Z,10.00
2023-05-25T03:18:50.783Z,9.70
2023-05-25T03:19:50.860Z,9.00
2023-05-25T03:20:50.772Z,10.20
2023-05-25T03:21:50.740Z,10.00
2023-05-25T03:22:50.769Z,10.70
2023-05-25T03:23:50.737Z,9.70
2023-05-25T03:24:50.722Z,13.30
2023-05-25T03:25:50.713Z,11.90
2023-05-25T03:26:50.727Z,13.90
2023-05-25T03:27:50.772Z,12.00
2023-05-25T03:28:50.703Z,10.40
2023-05-25T03:29:50.682Z,13.20
2023-05-25T03:30:50.673Z,14.00
2023-05-25T03:31:50.844Z,13.50
2023-05-25T03:32:50.894Z,11.00
2023-05-25T03:33:50.667Z,13.70
2023-05-25T03:34:50.645Z,11.40
2023-05-25T03:35:50.666Z,10.60
2023-05-25T03:36:50.662Z,11.40
2023-05-25T03:37:50.649Z,12.00
2023-05-25T03:38:50.630Z,15.30
2023-05-25T03:39:50.612Z,16.00
2023-05-25T03:40:50.598Z,12.90
2023-05-25T03:41:50.618Z,14.40
2023-05-25T03:42:50.585Z,11.90
2023-05-25T03:43:50.584Z,13.50
2023-05-25T03:44:50.575Z,13.40
2023-05-25T03:45:50.646Z,13.30
2023-05-25T03:46:50.584Z,14.20
2023-05-25T03:47:50.578Z,11.80
2023-05-25T03:48:50.563Z,11.00
2023-05-25T03:49:50.546Z,12.00
2023-05-25T03:50:50.552Z,11.60
2023-05-25T03:51:50.519Z,15.20
2023-05-25T03:52:50.520Z,11.50
2023-05-25T03:53:50.503Z,12.90
2023-05-25T03:54:50.496Z,11.10
2023-05-25T03:55:50.516Z,16.50
2023-05-25T03:56:50.487Z,14.80
2023-05-25T03:57:50.477Z,13.30
2023-05-25T03:58:50.473Z,13.70
2023-05-25T03:59:50.460Z,13.80
2023-05-25T04:00:50.474Z,16.10
2023-05-25T04:01:50.452Z,15.50
2023-05-25T04:02:50.558Z,16.40
2023-05-25T04:03:50.575Z,13.20
2023-05-25T04:04:50.595Z,17.40
2023-05-25T04:05:50.445Z,13.70
2023-05-25T04:06:50.439Z,16.60
2023-05-25T04:07:50.398Z,25.00
2023-05-25T04:08:50.401Z,16.90
2023-05-25T04:09:50.406Z,16.70
2023-05-25T04:10:50.385Z,14.10
2023-05-25T04:11:50.371Z,14.40
2023-05-25T04:12:50.361Z,14.80
2023-05-25T04:13:50.391Z,15.10
2023-05-25T04:14:50.387Z,14.10
2023-05-25T04:15:50.441Z,13.70
2023-05-25T04:16:50.405Z,14.10
2023-05-25T04:17:50.329Z,14.90
2023-05-25T04:18:50.400Z,15.10
2023-05-25T04:19:50.440Z,16.00
2023-05-25T04:20:50.306Z,14.20
2023-05-25T04:21:50.291Z,16.10
2023-05-25T04:22:50.329Z,16.10
2023-05-25T04:23:50.312Z,16.90
2023-05-25T04:24:50.258Z,22.50
2023-05-25T04:25:51.294Z,15.30
2023-05-25T04:26:50.258Z,16.60
2023-05-25T04:27:50.276Z,14.50
2023-05-25T04:28:50.283Z,17.60
2023-05-25T04:29:50.236Z,16.40
2023-05-25T04:30:50.233Z,16.80
2023-05-25T04:31:50.268Z,17.50
2023-05-25T04:32:50.304Z,14.30
2023-05-25T04:33:50.210Z,14.20
2023-05-25T04:34:50.195Z,14.30
2023-05-25T04:35:50.186Z,13.90
2023-05-25T04:36:50.195Z,14.10
2023-05-25T04:37:50.194Z,15.50
2023-05-25T04:38:50.181Z,13.80
2023-05-25T04:39:50.159Z,13.00
2023-05-25T04:40:50.150Z,13.40
2023-05-25T04:41:50.154Z,13.50
2023-05-25T04:42:50.169Z,11.70
2023-05-25T04:44:05.921Z,16.40
2023-05-25T04:44:52.140Z,14.70
2023-05-25T04:45:50.162Z,13.30
2023-05-25T04:46:50.135Z,14.40
2023-05-25T04:47:50.162Z,12.80
2023-05-25T04:48:50.098Z,13.70
2023-05-25T04:49:50.088Z,13.80
2023-05-25T04:50:50.110Z,13.30
2023-05-25T04:51:50.096Z,13.50
2023-05-25T04:52:50.070Z,12.50
2023-05-25T04:53:50.048Z,13.00
2023-05-25T04:54:50.047Z,14.10
2023-05-25T04:55:50.040Z,13.70
2023-05-25T04:56:50.057Z,12.40
2023-05-25T04:57:50.028Z,13.90
2023-05-25T04:58:50.030Z,11.80
2023-05-25T04:59:50.003Z,12.50
2023-05-25T05:00:52.501Z,13.50
2023-05-25T05:01:50.065Z,14.00
2023-05-25T05:02:50.101Z,13.30
2023-05-25T05:03:50.007Z,13.00
2023-05-25T05:04:49.973Z,12.60
2023-05-25T05:05:50.070Z,14.40
2023-05-25T05:06:49.980Z,11.60
2023-05-25T05:07:49.949Z,13.20
2023-05-25T05:08:49.939Z,12.60
2023-05-25T05:09:49.931Z,14.60
2023-05-25T05:10:49.999Z,13.50
2023-05-25T05:11:49.915Z,14.70
2023-05-25T05:12:49.929Z,13.00
2023-05-25T05:13:49.896Z,13.10
2023-05-25T05:14:49.891Z,16.10
2023-05-25T05:15:49.912Z,15.10
2023-05-25T05:16:49.894Z,14.10
2023-05-25T05:17:49.918Z,18.40
2023-05-25T05:18:49.858Z,15.80
2023-05-25T05:19:49.879Z,17.80
2023-05-25T05:20:49.878Z,16.80
2023-05-25T05:21:49.847Z,21.10
2023-05-25T05:22:49.835Z,16.70
2023-05-25T05:23:49.835Z,19.20
2023-05-25T05:24:49.859Z,16.20
2023-05-25T05:25:49.839Z,17.20
2023-05-25T05:26:58.513Z,19.00
2023-05-25T05:27:51.805Z,17.00
2023-05-25T05:28:49.790Z,16.60
2023-05-25T05:29:49.821Z,16.10
2023-05-25T05:30:49.783Z,17.90
2023-05-25T05:31:49.824Z,16.70
2023-05-25T05:32:49.806Z,17.40
2023-05-25T05:33:49.820Z,19.40
2023-05-25T05:34:49.779Z,18.20
2023-05-25T05:35:49.746Z,18.40
2023-05-25T05:36:58.181Z,16.60
2023-05-25T05:37:51.725Z,19.70
2023-05-25T05:38:49.750Z,19.00
2023-05-25T05:39:49.712Z,18.00
2023-05-25T05:40:49.699Z,18.70
2023-05-25T05:41:49.708Z,21.30
2023-05-25T05:42:49.790Z,20.10
2023-05-25T05:43:49.729Z,20.90
2023-05-25T05:44:49.698Z,19.30
2023-05-25T05:45:49.659Z,18.00
2023-05-25T05:46:49.752Z,18.50
2023-05-25T05:47:49.741Z,19.90
2023-05-25T05:48:49.717Z,20.30
2023-05-25T05:49:49.632Z,18.90
2023-05-25T05:50:49.633Z,20.10
2023-05-25T05:51:49.633Z,20.20
2023-05-25T05:52:49.635Z,22.40
2023-05-25T05:53:49.595Z,20.50
2023-05-25T05:54:49.610Z,25.70
2023-05-25T05:55:52.383Z,21.10
2023-05-25T05:56:49.584Z,22.10
2023-05-25T05:57:49.623Z,31.60
2023-05-25T05:58:49.581Z,25.10
2023-05-25T05:59:49.582Z,28.80
2023-05-25T06:00:49.561Z,30.00
2023-05-25T06:01:49.593Z,24.30
2023-05-25T06:02:49.761Z,25.30
2023-05-25T06:03:49.542Z,26.50
2023-05-25T06:04:49.526Z,24.40
2023-05-25T06:05:49.536Z,26.20
2023-05-25T06:06:49.542Z,24.80
2023-05-25T06:07:49.549Z,25.50
2023-05-25T06:08:49.490Z,25.80
2023-05-25T06:10:22.400Z,24.40
2023-05-25T06:10:49.472Z,27.50
2023-05-25T06:11:49.487Z,28.10
2023-05-25T06:12:49.458Z,28.10
2023-05-25T06:13:49.446Z,25.80
2023-05-25T06:14:49.442Z,23.20
2023-05-25T06:15:49.472Z,28.80
2023-05-25T06:16:49.511Z,29.40
2023-05-25T06:17:49.470Z,30.00
2023-05-25T06:18:49.400Z,28.90
2023-05-25T06:19:49.406Z,27.50
2023-05-25T06:20:49.382Z,28.70
2023-05-25T06:21:49.403Z,25.90
2023-05-25T06:22:49.375Z,29.50
2023-05-25T06:23:49.425Z,27.50
2023-05-25T06:24:49.357Z,29.00
2023-05-25T06:25:49.364Z,32.20
2023-05-25T06:26:49.400Z,30.10
2023-05-25T06:27:49.337Z,28.40
2023-05-25T06:28:49.317Z,29.40
2023-05-25T06:29:49.315Z,29.70
2023-05-25T06:30:49.356Z,29.50
2023-05-25T06:31:49.382Z,27.00
2023-05-25T06:32:49.371Z,31.10
2023-05-25T06:33:49.320Z,28.40
2023-05-25T06:34:49.269Z,28.70
2023-05-25T06:35:51.051Z,26.40
2023-05-25T06:36:49.273Z,30.30
2023-05-25T06:37:49.264Z,28.10
2023-05-25T06:38:49.252Z,30.10
2023-05-25T06:39:49.249Z,27.30
2023-05-25T06:40:49.249Z,32.50
2023-05-25T06:41:49.216Z,29.40
2023-05-25T06:42:49.222Z,28.00
2023-05-25T06:43:49.213Z,31.10
2023-05-25T06:44:49.201Z,31.80
2023-05-25T06:45:49.248Z,28.90
2023-05-25T06:46:49.250Z,29.00
2023-05-25T06:47:49.217Z,28.50
2023-05-25T06:48:49.208Z,27.10
2023-05-25T06:49:49.187Z,28.00
2023-05-25T06:50:49.203Z,31.20
2023-05-25T06:51:49.144Z,29.40
2023-05-25T06:52:49.149Z,26.60
2023-05-25T06:53:49.132Z,26.80
2023-05-25T06:54:49.162Z,27.00
2023-05-25T06:55:49.108Z,28.10
2023-05-25T06:56:49.119Z,29.00
2023-05-25T06:57:49.144Z,29.00
2023-05-25T06:58:49.087Z,27.00
2023-05-25T06:59:49.105Z,29.10
2023-05-25T07:00:49.085Z,30.90
2023-05-25T07:01:49.214Z,27.60
2023-05-25T07:02:49.104Z,28.10
2023-05-25T07:03:49.069Z,29.40
2023-05-25T07:04:49.094Z,28.60
2023-05-25T07:05:49.050Z,25.30
2023-05-25T07:06:49.032Z,28.50
2023-05-25T07:07:49.025Z,26.00
2023-05-25T07:08:49.033Z,26.90
2023-05-25T07:09:49.004Z,25.90
2023-05-25T07:10:50.325Z,27.60
2023-05-25T07:11:49.999Z,27.80
2023-05-25T07:12:49.011Z,25.10
2023-05-25T07:13:49.029Z,23.60
2023-05-25T07:14:49.017Z,23.50
2023-05-25T07:15:49.090Z,23.70
2023-05-25T07:16:48.961Z,25.80
2023-05-25T07:17:49.016Z,24.60
2023-05-25T07:18:49.008Z,24.20
2023-05-25T07:19:48.934Z,24.40
2023-05-25T07:20:48.936Z,24.40
2023-05-25T07:21:48.927Z,22.70
2023-05-25T07:22:48.945Z,25.20
2023-05-25T07:23:48.901Z,25.40
2023-05-25T07:24:48.896Z,22.70
2023-05-25T07:25:48.895Z,24.80
2023-05-25T07:26:48.877Z,24.20
2023-05-25T07:27:48.970Z,23.80
2023-05-25T07:28:48.872Z,24.80
2023-05-25T07:29:48.865Z,24.70
2023-05-25T07:30:48.845Z,24.70
2023-05-25T07:31:49.027Z,20.20
2023-05-25T07:32:48.877Z,21.90
2023-05-25T07:33:48.833Z,21.50
2023-05-25T07:34:48.814Z,21.80
2023-05-25T07:35:48.841Z,20.60
2023-05-25T07:36:48.845Z,22.20
2023-05-25T07:37:48.825Z,19.60
2023-05-25T07:38:48.793Z,20.90
2023-05-25T07:39:48.786Z,20.60
2023-05-25T07:40:48.776Z,21.10
2023-05-25T07:41:48.790Z,20.40
2023-05-25T07:42:48.774Z,21.10
2023-05-25T07:43:48.751Z,18.50
2023-05-25T07:44:48.747Z,22.90
2023-05-25T07:45:48.737Z,19.30
2023-05-25T07:46:48.795Z,22.50
2023-05-25T07:47:48.726Z,19.50
2023-05-25T07:48:48.705Z,18.10
2023-05-25T07:49:48.699Z,18.20
2023-05-25T07:50:48.721Z,20.10
2023-05-25T07:51:48.748Z,17.50
2023-05-25T07:52:48.679Z,19.10
2023-05-25T07:53:48.669Z,19.80
2023-05-25T07:54:48.666Z,20.20
2023-05-25T07:55:48.697Z,21.30
2023-05-25T07:56:48.660Z,19.00
2023-05-25T07:57:48.639Z,20.30
2023-05-25T07:58:48.635Z,19.90
2023-05-25T07:59:48.625Z,19.20
2023-05-25T08:00:48.653Z,18.50
2023-05-25T08:01:48.667Z,18.90
2023-05-25T08:02:48.773Z,19.50
2023-05-25T08:03:50.108Z,18.90
2023-05-25T08:04:49.633Z,18.90
2023-05-25T08:05:48.619Z,18.60
2023-05-25T08:06:48.572Z,18.00
2023-05-25T08:07:48.570Z,19.70
2023-05-25T08:08:48.565Z,18.60
2023-05-25T08:09:48.575Z,19.30
2023-05-25T08:10:48.564Z,19.20
2023-05-25T08:11:48.528Z,19.40
2023-05-25T08:12:50.618Z,19.70
2023-05-25T08:13:49.539Z,18.60
2023-05-25T08:14:48.524Z,21.20
2023-05-25T08:15:48.503Z,17.30
2023-05-25T08:16:48.505Z,17.40
2023-05-25T08:17:48.541Z,15.70
2023-05-25T08:18:48.487Z,18.60
2023-05-25T08:19:48.503Z,16.70
2023-05-25T08:20:48.572Z,16.50
2023-05-25T08:21:48.463Z,17.30
2023-05-25T08:22:48.447Z,19.90
2023-05-25T08:23:48.459Z,17.20
2023-05-25T08:24:48.462Z,16.80
2023-05-25T08:25:48.423Z,17.70
2023-05-25T08:26:54.855Z,19.40
2023-05-25T08:27:50.478Z,18.50
2023-05-25T08:28:48.425Z,18.30
2023-05-25T08:29:48.391Z,17.20
2023-05-25T08:30:48.398Z,16.30
2023-05-25T08:31:48.377Z,15.50
2023-05-25T08:32:48.373Z,16.00
2023-05-25T08:33:49.385Z,16.30
2023-05-25T08:34:48.376Z,16.70
2023-05-25T08:35:48.348Z,18.40
2023-05-25T08:36:48.339Z,16.60
2023-05-25T08:37:48.365Z,17.30
2023-05-25T08:38:48.358Z,19.50
2023-05-25T08:39:48.311Z,17.90
2023-05-25T08:40:48.301Z,17.40
2023-05-25T08:41:48.314Z,18.10
2023-05-25T08:42:48.315Z,15.00
2023-05-25T08:43:48.310Z,16.40
2023-05-25T08:44:48.279Z,17.50
2023-05-25T08:45:48.279Z,14.50
2023-05-25T08:46:48.272Z,16.10
2023-05-25T08:47:48.394Z,16.30
2023-05-25T08:48:48.292Z,16.30
2023-05-25T08:49:48.275Z,17.60
2023-05-25T08:50:48.222Z,16.30
2023-05-25T08:51:48.229Z,16.00
2023-05-25T08:52:48.239Z,15.30
2023-05-25T08:53:48.201Z,14.80
2023-05-25T08:54:48.203Z,14.80
2023-05-25T08:55:48.225Z,16.80
2023-05-25T08:56:48.184Z,15.90
2023-05-25T08:57:48.239Z,13.20
2023-05-25T08:58:48.170Z,15.50
2023-05-25T08:59:48.168Z,16.40
2023-05-25T09:00:48.153Z,14.80
2023-05-25T09:01:48.171Z,13.60
2023-05-25T09:02:48.256Z,15.80
2023-05-25T09:03:48.250Z,15.60
2023-05-25T09:04:48.119Z,15.40
2023-05-25T09:05:48.111Z,14.00
2023-05-25T09:06:57.341Z,13.60
2023-05-25T09:07:50.095Z,15.30
2023-05-25T09:08:48.094Z,15.60
2023-05-25T09:09:48.084Z,16.10
2023-05-25T09:10:48.069Z,14.70
2023-05-25T09:11:48.088Z,16.30
2023-05-25T09:12:48.078Z,13.40
2023-05-25T09:13:48.052Z,14.50
2023-05-25T09:14:48.370Z,15.70
2023-05-25T09:15:48.060Z,14.90
2023-05-25T09:16:48.102Z,15.60
2023-05-25T09:17:48.052Z,16.80
2023-05-25T09:18:48.025Z,17.30
2023-05-25T09:19:48.002Z,15.10
2023-05-25T09:20:48.250Z,14.30
2023-05-25T09:21:47.991Z,14.30
2023-05-25T09:22:47.979Z,14.90
2023-05-25T09:23:47.982Z,15.30
2023-05-25T09:24:47.969Z,15.80
2023-05-25T09:25:48.022Z,15.30
2023-05-25T09:26:48.303Z,14.40
2023-05-25T09:27:48.947Z,14.10
2023-05-25T09:28:47.962Z,18.80
2023-05-25T09:29:47.929Z,17.30
2023-05-25T09:30:47.964Z,18.80
2023-05-25T09:31:47.984Z,15.50
2023-05-25T09:32:47.948Z,17.40
2023-05-25T09:33:47.917Z,15.30
2023-05-25T09:34:47.922Z,15.60
2023-05-25T09:35:47.918Z,14.20
2023-05-25T09:36:48.126Z,15.20
2023-05-25T09:37:47.994Z,14.40
2023-05-25T09:38:48.081Z,16.30
2023-05-25T09:39:48.089Z,14.20
2023-05-25T09:40:48.081Z,15.30
2023-05-25T09:41:47.856Z,16.50
2023-05-25T09:42:47.877Z,13.70
2023-05-25T09:43:58.115Z,14.50
2023-05-25T09:44:48.846Z,16.20
2023-05-25T09:45:47.824Z,15.60
2023-05-25T09:46:47.815Z,24.20
2023-05-25T09:47:47.857Z,17.90
2023-05-25T09:48:47.853Z,15.00
2023-05-25T09:49:47.873Z,13.70
2023-05-25T09:50:49.724Z,18.60
2023-05-25T09:51:48.772Z,15.70
2023-05-25T09:52:47.765Z,18.10
2023-05-25T09:53:47.761Z,14.90
2023-05-25T09:54:47.775Z,17.00
2023-05-25T09:55:53.646Z,18.00
2023-05-25T09:56:49.731Z,16.20
2023-05-25T09:57:47.725Z,13.10
2023-05-25T09:58:47.751Z,14.70
2023-05-25T09:59:47.732Z,14.50
2023-05-25T10:00:47.711Z,13.50
2023-05-25T10:01:47.759Z,13.00
2023-05-25T10:02:47.731Z,15.90
2023-05-25T10:03:59.840Z,12.80
2023-05-25T10:04:49.771Z,14.90
2023-05-25T10:05:47.666Z,14.20
2023-05-25T10:06:47.653Z,12.50
2023-05-25T10:07:47.641Z,14.90
2023-05-25T10:08:47.673Z,15.70
2023-05-25T10:09:47.645Z,16.60
2023-05-25T10:10:47.650Z,14.80
2023-05-25T10:11:47.622Z,15.20
2023-05-25T10:12:48.115Z,13.60
2023-05-25T10:13:47.623Z,13.90
2023-05-25T10:14:47.587Z,17.70
2023-05-25T10:15:47.611Z,14.50
2023-05-25T10:16:47.592Z,14.90
2023-05-25T10:17:47.627Z,14.40
2023-05-25T10:18:47.572Z,14.20
2023-05-25T10:19:47.562Z,15.60
2023-05-25T10:20:47.591Z,15.00
2023-05-25T10:21:47.549Z,14.90
2023-05-25T10:22:47.560Z,15.60
2023-05-25T10:23:47.532Z,13.80
2023-05-25T10:24:47.541Z,16.00
2023-05-25T10:25:47.507Z,14.00
2023-05-25T10:26:47.524Z,14.60
2023-05-25T10:27:47.520Z,14.40
2023-05-25T10:28:47.498Z,12.90
2023-05-25T10:29:47.480Z,13.30
2023-05-25T10:30:47.495Z,13.40
2023-05-25T10:31:47.585Z,13.60
2023-05-25T10:32:47.557Z,16.50
2023-05-25T10:33:50.627Z,15.70
2023-05-25T10:34:49.438Z,13.90
2023-05-25T10:36:02.419Z,16.90
2023-05-25T10:36:49.446Z,15.60
2023-05-25T10:37:47.415Z,14.50
2023-05-25T10:38:47.453Z,15.70
2023-05-25T10:39:47.396Z,14.20
2023-05-25T10:40:47.401Z,18.50
2023-05-25T10:41:47.481Z,16.70
2023-05-25T10:42:47.393Z,15.90
2023-05-25T10:43:47.375Z,15.70
2023-05-25T10:44:47.367Z,15.30
2023-05-25T10:45:47.454Z,14.30
2023-05-25T10:46:47.493Z,15.60
2023-05-25T10:47:47.381Z,15.60
2023-05-25T10:48:47.330Z,14.30
2023-05-25T10:49:47.329Z,13.70
2023-05-25T10:50:47.345Z,15.30
2023-05-25T10:51:47.343Z,16.60
2023-05-25T10:52:47.491Z,15.20
2023-05-25T10:53:47.307Z,16.50
2023-05-25T10:54:47.290Z,14.50
2023-05-25T10:55:47.612Z,16.00
2023-05-25T10:56:47.303Z,13.10
2023-05-25T10:57:47.275Z,14.40
2023-05-25T10:58:47.268Z,15.00
2023-05-25T10:59:47.246Z,16.00
2023-05-25T11:00:47.293Z,14.90
2023-05-25T11:01:47.310Z,15.20
2023-05-25T11:02:47.283Z,14.80
2023-05-25T11:03:47.333Z,13.40
2023-05-25T11:04:47.213Z,14.80
2023-05-25T11:05:47.366Z,15.00
2023-05-25T11:06:47.204Z,17.00
2023-05-25T11:07:47.180Z,15.40
2023-05-25T11:08:47.179Z,15.00
2023-05-25T11:09:47.190Z,15.20
2023-05-25T11:10:47.187Z,14.80
2023-05-25T11:11:48.177Z,15.80
2023-05-25T11:12:47.142Z,15.30
2023-05-25T11:13:47.136Z,13.20
2023-05-25T11:14:47.198Z,15.00
2023-05-25T11:15:47.162Z,13.60
2023-05-25T11:16:47.154Z,15.50
2023-05-25T11:17:47.142Z,13.90
2023-05-25T11:18:47.199Z,15.20
2023-05-25T11:19:48.745Z,13.60
2023-05-25T11:20:47.248Z,13.30
2023-05-25T11:21:47.132Z,15.10
2023-05-25T11:22:47.078Z,13.70
2023-05-25T11:23:47.099Z,14.40
2023-05-25T11:24:47.079Z,14.00
2023-05-25T11:25:47.276Z,12.20
2023-05-25T11:26:47.054Z,14.10
2023-05-25T11:27:47.032Z,12.80
2023-05-25T11:28:47.065Z,13.00
2023-05-25T11:29:47.019Z,13.60
2023-05-25T11:30:47.031Z,12.30
2023-05-25T11:31:47.137Z,12.10
2023-05-25T11:32:47.045Z,12.00
2023-05-25T11:33:47.017Z,14.20
2023-05-25T11:34:46.994Z,12.20
2023-05-25T11:35:47.097Z,11.80
2023-05-25T11:36:46.973Z,15.80
2023-05-25T11:37:46.981Z,13.90
2023-05-25T11:38:56.220Z,12.10
2023-05-25T11:39:48.949Z,11.20
2023-05-25T11:40:46.938Z,13.30
2023-05-25T11:41:46.930Z,13.00
2023-05-25T11:42:46.942Z,14.80
2023-05-25T11:43:46.950Z,11.90
2023-05-25T11:44:46.908Z,12.90
2023-05-25T11:45:46.904Z,11.00
2023-05-25T11:46:46.987Z,12.10
2023-05-25T11:47:46.914Z,12.40
2023-05-25T11:48:46.879Z,11.60
2023-05-25T11:49:46.878Z,10.70
2023-05-25T11:50:46.999Z,12.40
2023-05-25T11:51:46.858Z,12.50
2023-05-25T11:52:46.911Z,12.70
2023-05-25T11:53:46.840Z,10.90
2023-05-25T11:54:46.886Z,12.20
2023-05-25T11:55:46.897Z,13.20
2023-05-25T11:56:46.855Z,11.40
2023-05-25T11:57:46.853Z,11.60
2023-05-25T11:58:46.799Z,11.60
2023-05-25T11:59:46.797Z,11.90
2023-05-25T12:00:46.778Z,12.40
2023-05-25T12:01:46.847Z,11.50
2023-05-25T12:02:46.933Z,11.70
2023-05-25T12:03:46.868Z,11.80
2023-05-25T12:04:46.856Z,12.10
2023-05-25T12:05:46.992Z,12.70
2023-05-25T12:06:46.766Z,10.60
2023-05-25T12:07:46.855Z,11.50
2023-05-25T12:08:46.757Z,12.70
2023-05-25T12:10:19.516Z,11.80
2023-05-25T12:10:48.402Z,11.70
2023-05-25T12:11:46.750Z,13.40
2023-05-25T12:12:46.686Z,12.10
2023-05-25T12:13:46.717Z,13.30
2023-05-25T12:14:46.676Z,12.00
2023-05-25T12:15:46.711Z,12.40
2023-05-25T12:16:46.713Z,12.20
2023-05-25T12:17:46.722Z,13.40
2023-05-25T12:18:46.654Z,14.80
2023-05-25T12:19:46.633Z,12.70
2023-05-25T12:20:46.972Z,12.70
2023-05-25T12:21:46.643Z,12.40
2023-05-25T12:22:46.794Z,10.40
2023-05-25T12:23:46.598Z,12.00
2023-05-25T12:24:46.627Z,11.10
2023-05-25T12:25:51.011Z,12.50
2023-05-25T12:26:47.587Z,12.00
2023-05-25T12:27:46.581Z,11.00
2023-05-25T12:28:46.566Z,11.20
2023-05-25T12:29:46.581Z,13.10
2023-05-25T12:30:46.600Z,12.10
2023-05-25T12:31:46.539Z,11.50
2023-05-25T12:32:46.566Z,13.20
2023-05-25T12:33:46.559Z,11.90
2023-05-25T12:34:46.566Z,11.00
2023-05-25T12:35:46.633Z,11.60
2023-05-25T12:36:46.500Z,14.00
2023-05-25T12:37:46.498Z,13.80
2023-05-25T12:38:46.517Z,12.00
2023-05-25T12:39:46.521Z,14.10
2023-05-25T12:40:46.611Z,12.20
2023-05-25T12:41:46.512Z,11.00
2023-05-25T12:42:46.468Z,11.60
2023-05-25T12:43:46.528Z,12.40
2023-05-25T12:44:46.553Z,10.20
2023-05-25T12:45:46.466Z,13.40
2023-05-25T12:46:47.474Z,11.70
2023-05-25T12:47:46.493Z,10.50
2023-05-25T12:48:46.439Z,11.30
2023-05-25T12:49:46.400Z,11.30
2023-05-25T12:51:46.384Z,11.40
2023-05-25T12:52:46.409Z,11.80
2023-05-25T12:53:46.395Z,13.90
2023-05-25T12:54:46.363Z,11.40
2023-05-25T12:55:46.352Z,12.00
2023-05-25T12:56:47.365Z,10.40
2023-05-25T12:57:46.368Z,12.00
2023-05-25T12:58:46.335Z,11.40